Time;durP1;ratioP1;P1;durP2;ratioP2;P2;SDS_P1;SDS_P2;PMS_P1;PMS_P2;Temp;Humidity;BMP_temperature;BMP_pressure;BME280_temperature;BME280_humidity;BME280_pressure;Samples;Min_cycle;Max_cycle;Signal;HPM_P1;HPM_P2
2021/12/01 00:02:24;;;;;;;1.62;1.15;;;;;;;16.75;54.00;98091.31;4418095;32;20045;-71
2021/12/01 00:04:50;;;;;;;2.37;0.98;;;;;;;16.50;54.02;98078.59;4418110;32;20042;-70
2021/12/01 00:07:16;;;;;;;1.17;1.00;;;;;;;16.45;54.03;98085.16;4418931;32;20125;-70
2021/12/01 00:09:41;;;;;;;1.87;1.08;;;;;;;16.60;54.00;98104.53;4417634;32;20131;-70
2021/12/01 00:12:07;;;;;;;1.90;1.40;;;;;;;16.36;54.70;98079.09;4420318;32;20145;-69
2021/12/01 00:14:33;;;;;;;2.12;1.50;;;;;;;16.59;54.06;98071.75;4416324;32;20082;-69
2021/12/01 00:16:58;;;;;;;2.10;1.58;;;;;;;16.29;54.10;98054.94;4414223;32;20080;-69
2021/12/01 00:19:24;;;;;;;2.08;1.87;;;;;;;16.88;53.27;98062.91;4415114;32;20144;-69
2021/12/01 00:21:50;;;;;;;4.10;1.73;;;;;;;16.75;53.48;98062.19;4416758;32;20076;-69
2021/12/01 00:24:16;;;;;;;3.35;1.90;;;;;;;16.15;54.70;98073.25;4416865;32;21134;-69
2021/12/01 00:26:41;;;;;;;3.70;1.80;;;;;;;16.42;54.32;98042.87;4418540;32;20072;-68
2021/12/01 00:29:07;;;;;;;1.30;1.20;;;;;;;16.12;55.09;98057.31;4414632;32;20081;-69
2021/12/01 00:34:38;;;;;;;4.50;1.30;;;;;;;16.52;54.60;98058.97;4418611;32;20430;-68
2021/12/01 00:37:04;;;;;;;3.03;1.20;;;;;;;16.26;54.79;98029.75;4416069;32;20033;-68
2021/12/01 00:39:30;;;;;;;2.65;1.10;;;;;;;15.88;55.72;98043.25;4414061;32;20104;-68
2021/12/01 00:41:56;;;;;;;4.43;1.10;;;;;;;15.78;56.27;98034.37;4418864;32;20126;-69
2021/12/01 00:44:23;;;;;;;4.10;0.93;;;;;;;15.98;55.44;98050.06;4416596;32;20468;-69
2021/12/01 00:47:05;;;;;;;7.87;0.80;;;;;;;15.82;56.24;98036.91;4416539;32;20081;-68
2021/12/01 00:49:34;;;;;;;5.62;0.52;;;;;;;15.84;56.04;98048.50;4413678;32;20046;-68
2021/12/01 00:52:00;;;;;;;4.80;0.60;;;;;;;15.96;55.61;98025.06;4415544;32;20138;-68
2021/12/01 00:54:25;;;;;;;1.73;0.60;;;;;;;16.36;54.45;98016.66;4416644;32;20061;-69
2021/12/01 00:56:51;;;;;;;4.43;0.60;;;;;;;15.89;54.17;98033.44;4416585;32;20081;-69
2021/12/01 00:59:18;;;;;;;6.28;0.75;;;;;;;15.83;53.83;98015.75;4415843;32;20061;-68
2021/12/01 01:01:45;;;;;;;4.37;0.60;;;;;;;15.64;53.62;98046.97;4415848;32;20066;-68
2021/12/01 01:04:11;;;;;;;3.85;0.62;;;;;;;15.67;53.04;98020.37;4414864;32;20096;-68
2021/12/01 01:06:37;;;;;;;9.48;0.98;;;;;;;15.64;53.22;98034.84;4418218;32;20129;-68
2021/12/01 01:09:05;;;;;;;3.58;1.10;;;;;;;15.78;52.90;98014.53;4418714;32;20042;-68
2021/12/01 01:17:08;;;;;;;9.82;0.80;;;;;;;15.84;53.51;97989.69;4417648;32;20050;-69
2021/12/01 01:19:36;;;;;;;4.60;0.35;;;;;;;15.75;53.64;97980.84;4413031;32;20367;-69
2021/12/01 01:22:03;;;;;;;3.87;0.35;;;;;;;15.72;53.55;97984.75;4421707;32;20625;-68
2021/12/01 01:24:29;;;;;;;0.57;0.20;;;;;;;16.05;53.05;97987.03;4416274;32;20054;-69
2021/12/01 01:26:56;;;;;;;1.55;0.20;;;;;;;15.69;53.91;97988.66;4420931;32;20075;-68
2021/12/01 01:29:22;;;;;;;1.27;0.28;;;;;;;15.79;53.54;98001.12;4416171;32;20486;-69
2021/12/01 01:31:52;;;;;;;3.50;0.32;;;;;;;15.65;53.73;97999.56;4419520;32;20034;-69
2021/12/01 01:34:18;;;;;;;3.25;0.40;;;;;;;15.82;52.77;97991.53;4420514;32;20105;-69
2021/12/01 01:36:43;;;;;;;5.60;0.28;;;;;;;15.38;52.97;97978.84;4418490;32;20034;-69
2021/12/01 01:39:09;;;;;;;5.65;0.50;;;;;;;15.66;52.26;97961.41;4422352;32;20053;-69
2021/12/01 01:41:35;;;;;;;6.37;0.37;;;;;;;15.34;52.71;97969.09;4417711;32;20068;-69
2021/12/01 01:44:01;;;;;;;2.60;0.60;;;;;;;15.58;51.95;97958.41;4417028;32;20116;-68
2021/12/01 01:46:32;;;;;;;3.72;0.50;;;;;;;15.17;52.85;97951.56;4418208;32;20095;-69
2021/12/01 01:49:05;;;;;;;10.75;0.70;;;;;;;15.25;52.51;97946.81;4418272;32;20045;-69
2021/12/01 01:51:32;;;;;;;5.28;0.82;;;;;;;15.28;51.83;97966.31;4422211;32;20791;-69
2021/12/01 01:53:58;;;;;;;4.93;0.70;;;;;;;14.84;52.82;97977.47;4421864;32;20618;-69
2021/12/01 01:56:25;;;;;;;11.90;0.98;;;;;;;14.97;52.54;97981.16;4420175;32;20587;-69
2021/12/01 01:58:52;;;;;;;2.50;0.57;;;;;;;14.73;52.56;98000.28;4416512;32;20073;-69
2021/12/01 02:04:06;;;;;;;4.70;0.52;;;;;;;14.08;53.13;98006.06;4421612;32;20457;-69
2021/12/01 02:06:32;;;;;;;3.95;0.65;;;;;;;14.51;52.36;97978.66;4421003;32;20184;-69
2021/12/01 02:08:58;;;;;;;7.35;0.68;;;;;;;14.68;51.77;97990.56;4419100;32;20097;-69
2021/12/01 02:11:27;;;;;;;7.22;0.73;;;;;;;14.86;51.48;98000.38;4417809;32;20038;-69
2021/12/01 02:13:54;;;;;;;4.85;0.75;;;;;;;14.82;51.26;97997.09;4420623;32;20498;-69
2021/12/01 02:16:21;;;;;;;9.45;0.50;;;;;;;15.02;50.38;97991.66;4420358;32;20068;-69
2021/12/01 02:18:47;;;;;;;4.75;0.62;;;;;;;15.03;50.25;97983.94;4415227;32;20920;-69
2021/12/01 02:21:16;;;;;;;3.35;0.40;;;;;;;14.80;50.51;98033.63;4419512;32;20076;-69
2021/12/01 02:23:46;;;;;;;7.20;0.62;;;;;;;14.73;51.03;97994.63;4422369;32;20480;-69
2021/12/01 02:26:14;;;;;;;7.87;0.50;;;;;;;15.00;50.69;98014.09;4419304;32;20061;-69
2021/12/01 02:28:41;;;;;;;9.73;0.75;;;;;;;14.55;50.66;98003.81;4419280;32;20158;-69
2021/12/01 02:31:07;;;;;;;7.10;0.60;;;;;;;14.48;50.46;98039.12;4418992;32;20094;-69
2021/12/01 02:33:33;;;;;;;8.52;0.52;;;;;;;14.37;50.55;98055.44;4422433;32;20099;-69
2021/12/01 02:35:59;;;;;;;4.12;0.47;;;;;;;14.23;50.43;98051.72;4419713;32;20045;-69
2021/12/01 02:38:25;;;;;;;5.65;0.30;;;;;;;13.85;51.79;98079.00;4418427;32;21506;-69
2021/12/01 02:40:52;;;;;;;4.18;0.37;;;;;;;13.96;52.06;98093.03;4419174;32;20175;-69
2021/12/01 02:43:21;;;;;;;5.30;0.70;;;;;;;14.37;51.04;98114.84;4419275;32;20140;-69
2021/12/01 02:45:51;;;;;;;3.22;0.22;;;;;;;14.40;50.94;98123.06;4419912;32;20026;-68
2021/12/01 02:48:17;;;;;;;5.75;0.50;;;;;;;14.60;50.08;98136.75;4418471;32;20399;-68
2021/12/01 02:50:42;;;;;;;1.27;0.20;;;;;;;14.42;50.10;98148.75;4417778;32;20378;-68
2021/12/01 02:53:09;;;;;;;2.85;0.20;;;;;;;14.47;50.20;98164.16;4418575;32;20676;-68
2021/12/01 02:55:40;;;;;;;1.55;0.10;;;;;;;14.07;50.40;98182.66;4421139;32;20034;-69
2021/12/01 02:58:06;;;;;;;0.62;0.03;;;;;;;14.34;50.21;98187.41;4419892;32;20723;-68
2021/12/01 03:00:33;;;;;;;0.40;0.00;;;;;;;14.36;50.09;98203.84;4420351;32;20081;-68
2021/12/01 03:03:00;;;;;;;0.98;0.00;;;;;;;14.12;50.38;98196.03;4421174;32;20038;-67
2021/12/01 03:05:26;;;;;;;0.00;0.00;;;;;;;13.86;50.10;98206.94;4420234;32;20080;-67
2021/12/01 03:07:52;;;;;;;0.00;0.00;;;;;;;13.77;50.43;98227.81;4417322;32;20065;-67
2021/12/01 03:10:18;;;;;;;0.00;0.00;;;;;;;13.65;50.71;98243.28;4417957;32;20420;-67
2021/12/01 03:12:44;;;;;;;0.13;0.00;;;;;;;13.57;51.47;98245.09;4418172;32;20026;-66
2021/12/01 03:15:15;;;;;;;0.20;0.10;;;;;;;13.31;51.05;98255.97;4418164;32;20041;-66
2021/12/01 03:17:41;;;;;;;1.87;0.00;;;;;;;14.08;49.92;98258.50;4419275;32;20121;-66
2021/12/01 03:20:10;;;;;;;0.00;0.00;;;;;;;13.85;50.01;98267.59;4416683;32;20117;-66
2021/12/01 03:22:36;;;;;;;0.10;0.00;;;;;;;13.86;50.14;98297.41;4418574;32;20069;-66
2021/12/01 03:25:09;;;;;;;0.08;0.00;;;;;;;13.45;50.52;98296.50;4420025;32;20170;-66
2021/12/01 03:27:36;;;;;;;0.37;0.10;;;;;;;13.03;51.49;98289.13;4416551;32;20127;-66
2021/12/01 03:30:03;;;;;;;0.25;0.05;;;;;;;13.27;50.86;98317.59;4417281;32;20111;-66
2021/12/01 03:32:29;;;;;;;0.00;0.00;;;;;;;13.99;50.00;98323.06;4418970;32;20386;-66
2021/12/01 03:34:57;;;;;;;0.10;0.00;;;;;;;13.51;49.93;98334.78;4417707;32;20137;-66
2021/12/01 03:37:23;;;;;;;0.00;0.00;;;;;;;13.00;50.74;98326.84;4417156;32;20080;-67
2021/12/01 03:39:49;;;;;;;0.00;0.00;;;;;;;13.53;50.34;98334.25;4419630;32;20053;-67
2021/12/01 03:42:15;;;;;;;0.30;0.00;;;;;;;13.66;50.16;98326.00;4417431;32;20103;-66
2021/12/01 03:44:41;;;;;;;0.20;0.00;;;;;;;13.23;50.22;98344.56;4421069;32;20099;-66
2021/12/01 03:47:07;;;;;;;0.00;0.00;;;;;;;13.46;49.88;98344.00;4417592;32;20493;-66
2021/12/01 03:49:32;;;;;;;0.10;0.10;;;;;;;13.37;50.25;98343.50;4416833;32;20046;-66
2021/12/01 03:51:58;;;;;;;0.75;0.20;;;;;;;14.03;49.08;98357.50;4417137;32;20692;-66
2021/12/01 03:54:26;;;;;;;0.25;0.17;;;;;;;13.45;49.98;98353.78;4419273;32;20105;-66
2021/12/01 03:56:52;;;;;;;0.00;0.00;;;;;;;13.83;49.22;98361.41;4419227;32;20104;-66
2021/12/01 03:59:17;;;;;;;0.05;0.00;;;;;;;13.76;49.26;98364.78;4415503;32;20137;-66
2021/12/01 04:01:43;;;;;;;0.00;0.00;;;;;;;14.02;49.12;98361.59;4415936;32;20046;-66
2021/12/01 04:04:09;;;;;;;0.13;0.00;;;;;;;13.80;49.33;98368.09;4417154;32;20076;-66
2021/12/01 04:06:35;;;;;;;0.00;0.00;;;;;;;13.94;49.45;98375.50;4417081;32;20086;-66
2021/12/01 04:09:03;;;;;;;0.22;0.00;;;;;;;14.34;48.49;98373.34;4418061;32;20096;-66
2021/12/01 04:11:29;;;;;;;0.00;0.00;;;;;;;14.28;48.27;98386.75;4418018;32;20800;-66
2021/12/01 04:13:56;;;;;;;0.10;0.00;;;;;;;14.19;48.14;98372.84;4419705;32;20041;-66
2021/12/01 04:16:23;;;;;;;1.17;0.00;;;;;;;14.31;48.32;98380.03;4418273;32;20058;-66
2021/12/01 04:18:48;;;;;;;0.20;0.00;;;;;;;14.03;48.49;98375.22;4419832;32;20430;-66
2021/12/01 04:21:15;;;;;;;0.10;0.00;;;;;;;14.27;48.49;98386.00;4421026;32;20097;-66
2021/12/01 04:23:41;;;;;;;1.02;0.00;;;;;;;14.22;48.17;98383.13;4418313;32;20103;-66
2021/12/01 04:26:12;;;;;;;0.10;0.00;;;;;;;14.28;48.03;98387.53;4418787;32;20033;-66
2021/12/01 04:28:38;;;;;;;0.10;0.00;;;;;;;14.15;48.00;98383.69;4417778;32;20054;-66
2021/12/01 04:31:04;;;;;;;0.17;0.00;;;;;;;14.25;47.75;98393.44;4415862;32;20088;-66
2021/12/01 04:33:30;;;;;;;2.92;0.00;;;;;;;14.66;47.19;98405.63;4417505;32;20037;-66
2021/12/01 04:35:56;;;;;;;0.90;0.10;;;;;;;13.99;48.12;98380.38;4417412;32;20046;-66
2021/12/01 04:38:21;;;;;;;0.20;0.00;;;;;;;14.76;46.78;98387.03;4415136;32;20093;-66
2021/12/01 04:40:47;;;;;;;0.28;0.00;;;;;;;14.65;47.35;98404.84;4417016;32;20091;-66
2021/12/01 04:43:13;;;;;;;0.17;0.00;;;;;;;14.56;46.99;98390.22;4420228;32;20103;-66
2021/12/01 04:45:42;;;;;;;0.00;0.00;;;;;;;14.67;47.05;98405.06;4420710;32;20402;-66
2021/12/01 04:48:09;;;;;;;0.45;0.10;;;;;;;14.78;46.96;98409.91;4419495;32;20240;-66
2021/12/01 04:50:34;;;;;;;0.62;0.08;;;;;;;14.85;46.58;98412.22;4418645;32;20058;-66
2021/12/01 04:53:00;;;;;;;0.10;0.00;;;;;;;14.88;46.62;98405.50;4419608;32;20370;-66
2021/12/01 04:55:27;;;;;;;0.28;0.00;;;;;;;14.80;46.50;98408.13;4418069;32;20537;-66
2021/12/01 04:57:53;;;;;;;0.65;0.10;;;;;;;14.76;46.84;98393.44;4416389;32;20532;-66
2021/12/01 05:00:22;;;;;;;0.73;0.00;;;;;;;15.23;45.86;98397.78;4419301;32;20090;-66
2021/12/01 05:02:49;;;;;;;1.42;0.15;;;;;;;15.29;45.87;98404.19;4419404;32;20084;-66
2021/12/01 05:05:14;;;;;;;0.57;0.10;;;;;;;15.42;46.17;98398.69;4422003;32;20081;-66
2021/12/01 05:07:40;;;;;;;0.30;0.10;;;;;;;15.25;46.26;98395.19;4419477;32;20108;-66
2021/12/01 05:10:07;;;;;;;2.28;0.20;;;;;;;15.11;46.70;98395.53;4421101;32;20100;-67
2021/12/01 05:12:34;;;;;;;1.87;0.20;;;;;;;15.13;46.95;98401.47;4420560;32;20107;-67
2021/12/01 05:15:00;;;;;;;1.60;0.10;;;;;;;14.93;47.35;98407.50;4420780;32;20368;-67
2021/12/01 05:17:25;;;;;;;5.85;0.68;;;;;;;14.48;48.68;98414.72;4419675;32;20077;-67
2021/12/01 05:19:51;;;;;;;3.90;0.60;;;;;;;14.31;49.27;98408.34;4419421;32;20097;-67
2021/12/01 05:22:17;;;;;;;2.30;0.32;;;;;;;14.50;49.06;98403.62;4422925;32;20072;-67
2021/12/01 05:24:43;;;;;;;3.40;0.45;;;;;;;14.88;48.35;98389.25;4420080;32;20673;-67
2021/12/01 05:27:09;;;;;;;2.50;0.40;;;;;;;15.03;48.15;98400.25;4423004;32;20053;-67
2021/12/01 05:29:34;;;;;;;3.50;0.45;;;;;;;14.86;48.88;98402.41;4421870;32;20085;-67
2021/12/01 05:32:00;;;;;;;3.00;0.35;;;;;;;14.90;48.65;98405.72;4420792;32;20525;-67
2021/12/01 05:34:26;;;;;;;4.18;0.25;;;;;;;15.13;48.14;98398.63;4421663;32;20045;-67
2021/12/01 05:36:53;;;;;;;3.08;0.55;;;;;;;15.14;48.37;98405.81;4419897;32;20104;-67
2021/12/01 05:39:19;;;;;;;4.22;0.85;;;;;;;15.12;48.50;98405.56;4417162;32;20347;-67
2021/12/01 05:41:45;;;;;;;4.28;0.60;;;;;;;15.00;49.06;98418.28;4423514;32;20528;-67
2021/12/01 05:44:12;;;;;;;4.12;0.65;;;;;;;15.50;48.35;98396.06;4419141;32;20154;-67
2021/12/01 05:46:38;;;;;;;5.20;0.43;;;;;;;15.32;49.05;98405.19;4420032;32;20075;-67
2021/12/01 05:49:04;;;;;;;4.78;0.47;;;;;;;15.09;49.07;98421.56;4418992;32;20106;-67
2021/12/01 05:51:31;;;;;;;3.53;0.37;;;;;;;15.65;48.41;98402.88;4420146;32;20386;-67
2021/12/01 05:53:56;;;;;;;7.68;0.45;;;;;;;15.55;48.48;98398.06;4422028;32;20050;-68
2021/12/01 05:56:22;;;;;;;5.22;0.28;;;;;;;15.60;48.24;98403.69;4420778;32;20129;-67
2021/12/01 05:58:48;;;;;;;3.72;0.30;;;;;;;15.51;48.32;98411.75;4418907;32;20111;-67
2021/12/01 06:01:13;;;;;;;9.82;0.60;;;;;;;15.43;48.72;98405.09;4422174;32;20142;-67
2021/12/01 06:03:39;;;;;;;6.60;0.47;;;;;;;15.85;47.57;98413.00;4420832;32;20065;-67
2021/12/01 06:06:06;;;;;;;6.65;0.62;;;;;;;15.54;47.78;98422.81;4419792;32;20089;-67
2021/12/01 06:08:31;;;;;;;5.30;0.77;;;;;;;15.51;48.30;98403.25;4419964;32;20379;-67
2021/12/01 06:10:58;;;;;;;8.07;1.10;;;;;;;15.55;47.79;98406.56;4421614;32;20076;-67
2021/12/01 06:13:24;;;;;;;7.85;0.80;;;;;;;15.05;48.74;98415.41;4416167;32;20178;-67
2021/12/01 06:15:51;;;;;;;3.95;0.68;;;;;;;15.13;49.08;98416.37;4421650;32;20037;-67
2021/12/01 06:18:17;;;;;;;6.95;1.00;;;;;;;15.92;47.58;98423.75;4419468;32;20076;-67
2021/12/01 06:20:43;;;;;;;9.00;1.10;;;;;;;16.09;47.06;98410.16;4419833;32;20061;-67
2021/12/01 06:23:10;;;;;;;6.25;1.00;;;;;;;15.85;47.07;98418.66;4418583;32;20104;-67
2021/12/01 06:25:35;;;;;;;13.85;1.45;;;;;;;15.41;47.92;98416.97;4421286;32;20098;-67
2021/12/01 06:28:01;;;;;;;13.02;1.27;;;;;;;15.40;47.37;98417.53;4419354;32;20101;-67
2021/12/01 06:30:31;;;;;;;9.60;1.65;;;;;;;15.96;45.92;98415.72;4420341;32;20085;-67
2021/12/01 06:32:57;;;;;;;5.28;0.95;;;;;;;15.76;45.48;98424.69;4422075;32;20104;-67
2021/12/01 06:35:23;;;;;;;12.57;2.05;;;;;;;15.76;45.46;98421.84;4420981;32;20086;-67
2021/12/01 06:37:50;;;;;;;17.73;1.58;;;;;;;15.42;46.33;98432.69;4419689;32;20087;-67
2021/12/01 06:40:16;;;;;;;17.40;2.28;;;;;;;15.29;46.47;98441.03;4418836;32;20076;-67
2021/12/01 06:42:43;;;;;;;14.25;1.58;;;;;;;15.62;46.01;98431.50;4421962;32;20045;-67
2021/12/01 06:45:11;;;;;;;12.85;2.10;;;;;;;15.78;45.66;98439.84;4422862;32;20077;-68
2021/12/01 06:47:37;;;;;;;15.80;2.22;;;;;;;15.57;45.65;98435.16;4420888;32;20082;-67
2021/12/01 06:50:05;;;;;;;10.38;1.73;;;;;;;15.54;45.43;98436.22;4416550;32;20042;-68
2021/12/01 06:52:31;;;;;;;10.25;1.48;;;;;;;15.78;44.88;98437.00;4417878;32;20038;-68
2021/12/01 06:54:58;;;;;;;14.70;2.25;;;;;;;15.36;45.49;98440.44;4418036;32;21434;-68
2021/12/01 06:57:24;;;;;;;15.90;1.83;;;;;;;15.87;45.00;98450.09;4418679;32;20434;-68
2021/12/01 06:59:51;;;;;;;14.65;1.92;;;;;;;15.41;45.85;98444.56;4417981;32;20525;-68
2021/12/01 07:02:18;;;;;;;17.60;2.40;;;;;;;14.90;46.51;98465.19;4419724;32;20092;-68
2021/12/01 07:04:44;;;;;;;13.68;1.33;;;;;;;15.02;46.17;98461.00;4418625;32;20410;-68
2021/12/01 07:07:11;;;;;;;13.50;1.80;;;;;;;14.78;46.09;98472.97;4420457;32;20060;-68
2021/12/01 07:09:37;;;;;;;11.25;1.50;;;;;;;14.76;45.73;98454.97;4418187;32;20435;-68
2021/12/01 07:12:03;;;;;;;12.52;1.62;;;;;;;15.17;44.86;98461.44;4419328;32;20049;-68
2021/12/01 07:14:29;;;;;;;11.48;1.40;;;;;;;14.99;45.26;98457.16;4419030;32;20093;-68
2021/12/01 07:16:55;;;;;;;13.90;1.62;;;;;;;14.74;45.80;98466.03;4419951;32;20105;-68
2021/12/01 07:19:21;;;;;;;9.45;1.35;;;;;;;15.16;45.03;98463.50;4418252;32;20149;-68
2021/12/01 07:21:47;;;;;;;14.25;1.60;;;;;;;14.78;45.61;98458.03;4419889;32;20054;-68
2021/12/01 07:24:13;;;;;;;11.25;1.37;;;;;;;15.50;44.43;98470.50;4420503;32;20107;-68
2021/12/01 07:26:39;;;;;;;10.98;1.17;;;;;;;14.47;46.20;98467.69;4418111;32;20347;-68
2021/12/01 07:29:05;;;;;;;12.77;1.80;;;;;;;15.03;44.86;98473.91;4417438;32;20055;-68
2021/12/01 07:31:31;;;;;;;10.25;1.40;;;;;;;15.49;44.16;98480.31;4418508;32;20427;-68
2021/12/01 07:33:57;;;;;;;11.02;1.05;;;;;;;15.74;43.65;98475.50;4418945;32;20123;-68
2021/12/01 07:36:23;;;;;;;14.13;1.50;;;;;;;15.51;43.62;98465.59;4419133;32;20093;-68
2021/12/01 07:38:50;;;;;;;12.25;1.42;;;;;;;15.00;44.60;98463.63;4416689;32;20123;-68
2021/12/01 07:41:17;;;;;;;13.60;2.03;;;;;;;14.54;45.19;98466.41;4418673;32;20077;-68
2021/12/01 07:43:44;;;;;;;13.10;1.40;;;;;;;15.17;44.57;98481.25;4415950;32;20067;-68
2021/12/01 07:46:10;;;;;;;11.18;1.67;;;;;;;15.05;44.54;98474.13;4416536;32;20444;-68
2021/12/01 07:48:36;;;;;;;8.88;1.37;;;;;;;15.33;44.04;98488.88;4405748;32;20127;-68
2021/12/01 07:51:03;;;;;;;7.57;0.93;;;;;;;14.94;44.40;98503.28;4405823;32;20123;-68
2021/12/01 07:53:29;;;;;;;17.67;2.22;;;;;;;14.90;44.94;98493.50;4412240;32;20037;-69
2021/12/01 07:55:55;;;;;;;13.75;1.40;;;;;;;14.76;44.86;98495.38;4401045;32;20636;-69
2021/12/01 07:58:21;;;;;;;16.87;1.45;;;;;;;15.18;44.12;98496.97;4408918;32;20073;-69
2021/12/01 08:00:47;;;;;;;14.68;1.48;;;;;;;14.70;44.84;98496.69;4411632;32;20089;-68
2021/12/01 08:03:12;;;;;;;10.63;1.35;;;;;;;14.87;44.43;98494.56;4407427;32;20649;-68
2021/12/01 08:05:38;;;;;;;13.18;1.65;;;;;;;15.09;43.77;98480.28;4407376;32;20077;-68
2021/12/01 08:08:05;;;;;;;12.05;1.55;;;;;;;14.69;44.87;98484.59;4409398;32;20076;-68
2021/12/01 08:10:31;;;;;;;13.70;1.67;;;;;;;14.80;44.45;98490.22;4407166;32;20090;-68
2021/12/01 08:13:00;;;;;;;13.80;1.70;;;;;;;14.95;44.31;98504.81;4403650;32;20532;-68
2021/12/01 08:15:26;;;;;;;8.10;1.55;;;;;;;14.52;45.14;98517.84;4405234;32;20121;-69
2021/12/01 08:17:52;;;;;;;14.75;1.35;;;;;;;14.87;44.36;98520.81;4408035;32;20100;-69
2021/12/01 08:20:19;;;;;;;15.15;1.60;;;;;;;14.66;44.80;98530.91;4403781;32;20444;-68
2021/12/01 08:22:45;;;;;;;12.00;1.73;;;;;;;15.27;43.73;98539.94;4409369;32;20100;-69
2021/12/01 08:25:12;;;;;;;14.90;1.83;;;;;;;15.34;43.30;98547.13;4409921;32;20165;-69
2021/12/01 08:27:38;;;;;;;15.93;1.50;;;;;;;15.03;43.69;98542.63;4404273;32;20244;-69
2021/12/01 08:30:05;;;;;;;8.02;1.52;;;;;;;15.15;43.41;98538.44;4405245;32;20054;-69
2021/12/01 08:32:30;;;;;;;18.02;1.70;;;;;;;15.33;43.32;98549.19;4407235;32;20075;-69
2021/12/01 08:34:58;;;;;;;15.25;1.60;;;;;;;15.01;43.98;98548.06;4405276;32;20158;-69
2021/12/01 08:37:24;;;;;;;9.52;1.52;;;;;;;15.56;42.66;98556.28;4399998;32;20431;-69
2021/12/01 08:39:50;;;;;;;14.07;1.90;;;;;;;15.15;43.28;98546.16;4408712;32;20575;-69
2021/12/01 08:42:18;;;;;;;15.77;1.77;;;;;;;15.36;43.19;98548.13;4406966;32;20808;-69
2021/12/01 08:44:45;;;;;;;9.32;1.37;;;;;;;15.46;42.97;98551.44;4408138;32;20092;-69
2021/12/01 08:47:13;;;;;;;15.82;1.60;;;;;;;15.52;42.78;98557.84;4409159;32;20068;-69
2021/12/01 08:49:39;;;;;;;15.00;1.80;;;;;;;15.62;43.01;98568.34;4408161;32;20037;-68
2021/12/01 08:52:05;;;;;;;15.13;1.67;;;;;;;15.86;41.62;98557.09;4408312;32;20415;-68
2021/12/01 08:54:31;;;;;;;11.90;1.80;;;;;;;15.87;41.90;98549.38;4407239;32;20053;-68
2021/12/01 08:56:57;;;;;;;12.18;1.58;;;;;;;15.16;42.48;98539.22;4409482;32;20264;-68
2021/12/01 08:59:23;;;;;;;18.08;2.42;;;;;;;14.73;43.66;98535.28;4408065;32;20038;-68
2021/12/01 09:01:50;;;;;;;5.15;0.90;;;;;;;14.95;43.10;98557.84;4408986;32;20143;-68
2021/12/01 09:04:15;;;;;;;11.85;1.70;;;;;;;15.20;42.61;98542.56;4408631;32;20101;-68
2021/12/01 09:06:41;;;;;;;7.00;1.42;;;;;;;15.32;42.52;98558.19;4408364;32;20087;-69
2021/12/01 09:09:07;;;;;;;6.12;1.05;;;;;;;15.72;41.66;98541.25;4409717;32;20365;-68
2021/12/01 09:11:33;;;;;;;8.65;1.50;;;;;;;14.76;43.08;98568.22;4410854;32;20090;-69
2021/12/01 09:13:59;;;;;;;9.70;1.42;;;;;;;15.45;41.26;98549.91;4403455;32;20344;-68
2021/12/01 09:16:25;;;;;;;12.23;1.67;;;;;;;15.66;41.17;98554.69;4410899;32;20299;-69
2021/12/01 09:18:52;;;;;;;13.20;1.50;;;;;;;16.13;40.97;98557.44;4408239;32;20098;-68
2021/12/01 09:21:18;;;;;;;11.18;1.75;;;;;;;16.31;40.50;98563.19;4412944;32;20077;-68
2021/12/01 09:23:45;;;;;;;9.13;1.20;;;;;;;16.59;40.33;98572.22;4410804;32;20106;-68
2021/12/01 09:26:11;;;;;;;10.88;1.98;;;;;;;16.52;40.64;98566.34;4407192;32;20878;-68
2021/12/01 09:28:37;;;;;;;17.35;2.40;;;;;;;16.54;40.02;98578.72;4408881;32;20091;-69
2021/12/01 09:31:02;;;;;;;10.95;1.50;;;;;;;16.62;39.79;98573.22;4410648;32;20089;-69
2021/12/01 09:33:29;;;;;;;16.37;1.85;;;;;;;16.64;39.47;98581.97;4410265;32;20101;-68
2021/12/01 09:35:56;;;;;;;16.30;2.08;;;;;;;16.37;40.49;98571.62;4405344;32;20541;-68
2021/12/01 09:38:22;;;;;;;15.25;1.50;;;;;;;16.77;40.38;98573.56;4407273;32;20117;-68
2021/12/01 09:40:52;;;;;;;10.55;1.73;;;;;;;17.09;40.02;98583.78;4413538;32;20042;-68
2021/12/01 09:43:22;;;;;;;8.05;1.30;;;;;;;17.43;39.61;98581.34;4409490;32;20096;-69
2021/12/01 09:45:49;;;;;;;8.02;1.65;;;;;;;17.49;39.51;98582.03;4413015;32;20069;-68
2021/12/01 09:48:15;;;;;;;11.48;1.67;;;;;;;17.55;39.88;98588.44;4414545;32;20185;-68
2021/12/01 09:50:41;;;;;;;15.85;1.65;;;;;;;17.71;38.62;98582.47;4415056;32;20549;-69
2021/12/01 09:53:07;;;;;;;7.10;1.20;;;;;;;18.08;38.30;98587.38;4409759;32;20096;-69
2021/12/01 09:55:33;;;;;;;15.50;1.87;;;;;;;17.91;38.10;98606.00;4411932;32;20524;-69
2021/12/01 10:00:36;;;;;;;9.20;1.37;;;;;;;18.60;36.62;98621.72;3976317;31;15139257;-70
2021/12/01 10:03:02;;;;;;;11.02;1.70;;;;;;;18.60;36.62;98621.72;4439931;32;20426;-70
2021/12/01 10:08:30;;;;;;;5.18;1.08;;;;;;;18.97;35.61;98623.66;3964305;32;15023041;-69
2021/12/01 10:10:57;;;;;;;11.02;1.30;;;;;;;18.97;35.61;98623.66;4416850;32;20430;-69
2021/12/01 10:13:33;;;;;;;7.28;1.10;;;;;;;18.76;36.06;98632.06;4420208;32;20065;-68
2021/12/01 10:16:02;;;;;;;8.88;1.80;;;;;;;18.71;35.65;98644.31;4414370;32;20089;-70
2021/12/01 10:18:34;;;;;;;11.52;1.52;;;;;;;18.45;36.53;98652.81;4411393;32;20069;-70
2021/12/01 10:23:37;;;;;;;3.50;0.75;;;;;;;17.61;38.70;98655.28;3975763;32;15023017;-69
2021/12/01 10:26:09;;;;;;;9.25;1.08;;;;;;;17.61;38.70;98655.28;4421134;32;20037;-70
2021/12/01 10:28:46;;;;;;;5.45;1.50;;;;;;;16.86;40.23;98649.94;4423899;32;20077;-69
2021/12/01 10:31:13;;;;;;;6.37;1.37;;;;;;;16.51;41.30;98661.38;4427834;32;20068;-70
2021/12/01 10:33:40;;;;;;;5.93;1.37;;;;;;;16.31;41.82;98678.75;4424367;32;20231;-71
2021/12/01 10:36:07;;;;;;;6.68;1.30;;;;;;;17.24;40.31;98672.25;4427957;32;20482;-70
2021/12/01 10:38:37;;;;;;;7.07;1.17;;;;;;;17.81;39.31;98660.47;4428808;32;20073;-70
2021/12/01 10:41:07;;;;;;;9.80;1.65;;;;;;;18.42;38.06;98662.44;4426873;32;20085;-70
2021/12/01 10:43:46;;;;;;;11.15;2.20;;;;;;;18.28;38.09;98655.09;4425146;32;20099;-70
2021/12/01 10:46:16;;;;;;;9.93;1.02;;;;;;;19.17;36.89;98660.06;4429113;32;20676;-70
2021/12/01 10:48:43;;;;;;;7.57;1.05;;;;;;;19.33;36.07;98665.47;4422733;32;20081;-69
2021/12/01 10:51:13;;;;;;;6.35;1.00;;;;;;;19.10;35.97;98661.50;4424980;32;20110;-69
2021/12/01 10:53:39;;;;;;;11.50;2.33;;;;;;;18.52;36.45;98655.00;4426305;32;20093;-71
2021/12/01 10:56:07;;;;;;;8.00;1.50;;;;;;;18.09;37.51;98656.44;4423340;32;20724;-70
2021/12/01 10:58:37;;;;;;;11.38;1.90;;;;;;;18.13;37.93;98662.59;4425005;32;20081;-69
2021/12/01 11:01:06;;;;;;;4.32;1.17;;;;;;;18.51;37.38;98661.25;4426137;32;20402;-69
2021/12/01 11:03:35;;;;;;;8.75;0.90;;;;;;;17.73;37.89;98653.06;4427149;32;20041;-69
2021/12/01 11:06:12;;;;;;;13.45;1.48;;;;;;;18.19;37.08;98663.28;4424112;32;20071;-69
2021/12/01 11:08:41;;;;;;;6.32;1.25;;;;;;;18.63;36.61;98665.44;4423426;32;20069;-70
2021/12/01 11:13:46;;;;;;;10.07;1.45;;;;;;;19.82;35.37;98667.84;3964006;31;15709096;-68
2021/12/01 11:16:14;;;;;;;11.98;1.85;;;;;;;19.82;35.37;98667.84;4443203;32;20434;-68
2021/12/01 11:18:44;;;;;;;11.52;1.67;;;;;;;18.91;36.54;98662.88;4442665;32;20104;-68
2021/12/01 11:21:19;;;;;;;8.88;1.45;;;;;;;18.98;36.66;98662.22;4440658;32;20390;-70
2021/12/01 11:23:47;;;;;;;;;;;;;;;19.71;35.19;98651.72;4441222;32;20068;-69
2021/12/01 11:26:20;;;;;;;11.57;1.50;;;;;;;20.14;34.09;98652.09;4442450;32;20431;-69
2021/12/01 11:28:50;;;;;;;7.87;1.33;;;;;;;20.03;34.56;98660.88;4441527;32;20101;-69
2021/12/01 11:31:22;;;;;;;8.02;1.33;;;;;;;19.88;34.33;98665.66;4443093;32;20633;-70
2021/12/01 11:33:49;;;;;;;9.77;1.37;;;;;;;20.07;33.73;98649.12;4442512;32;20144;-70
2021/12/01 11:36:17;;;;;;;8.35;1.35;;;;;;;20.88;33.18;98665.59;4443068;32;20102;-70
2021/12/01 11:38:50;;;;;;;7.72;1.30;;;;;;;21.40;32.36;98662.38;4428926;32;20100;-70
2021/12/01 11:41:17;;;;;;;9.40;1.45;;;;;;;21.23;32.28;98664.94;4440407;32;20137;-71
2021/12/01 11:43:43;;;;;;;9.23;1.45;;;;;;;21.04;32.48;98672.22;4441657;32;20351;-70
2021/12/01 11:46:10;;;;;;;7.07;1.30;;;;;;;20.94;32.49;98686.25;4442247;32;20108;-71
2021/12/01 11:48:40;;;;;;;8.63;1.50;;;;;;;21.63;31.65;98696.88;4437245;32;20450;-71
2021/12/01 12:01:38;;;;;;;10.85;1.20;;;;;;;22.06;30.95;98719.81;3971844;32;15027599;-71
2021/12/01 12:06:52;;;;;;;7.20;1.30;;;;;;;22.03;31.01;98723.06;3965462;32;15022545;-70